Terminal Aerodrome Forecast
Issued by NWS

Home | Current Version | Previous Version | Text Only | Print | Product List | Glossary On
Versions: 1 2 3 4 5 6 7 8 9 10 11 12 13 14 15
000
FTUS43 KAPX 292300
TAFAPN
TAF
KAPN 292337Z 3000/3024 16008KT P6SM BKN140
     FM300200 16006KT P6SM BKN140 WS020/20036KT
     FM301400 19008G16KT P6SM SCT035 BKN140
     FM301900 19009KT 4SM -TSRA BR OVC030CB
     FM302300 19005KT P6SM BKN035=

USA.gov is the U.S. government's official web portal to all federal, state and local government web resources and services.